NWS Home NWS Lubbock West Texas Mesonet                      Daily Summary For 04/13/2021

Latest   N   C   S   Daily Sum   3hrΔ   24hrΔ   Soil Data 
Site Map   24hr Precip   72hr Precip   Google Plot


Station Time of Last Max Temp Min Temp Max/Min Dew Pt. Max/Min RH 10m Avg Wind 2m Avg Wind Peak Gust @ 33ft (mph) Potential Evapotranspiration
mm/day or in/day
Rain Sum Solar Rad
MJ/m^2
% Clear Day Red Flag
Abernathy 5ENE 11:59 PM 72 58 60 /55 96 / 60 13.6  (NE) 10.6 31.8 mph 74° @ 1056 AM 3 or 0.12 0.00 25.4 187 4
Adrian 6WSW 11:59 PM 72 58 60 /55 96 / 60 11  (E) 8.7 25.9 mph 77° @ 1119 AM 2.3 or 0.09 0.00 27.9 214.7 0
Aiken 3WSW 11:59 PM 72 58 60 /55 96 / 60 13.8  (NE) 10 29.1 mph 56° @ 1116 AM 3 or 0.12 0.11 24.9 185.5 0
Amarillo 15NNW 11:59 PM 72 58 60 /55 96 / 60 9.5  (NE) 7.3 29.8 mph 97° @ 0341 PM 2.3 or 0.09 0.00 25.1 195.4 0
Amarillo 7SSE 11:59 PM 72 58 60 /55 96 / 60 11.7  (NE) 8.9 25.3 mph 84° @ 0422 PM 2.5 or 0.1 0.00 24.1 185.2 0
Amarillo 9NNE 11:59 PM 72 58 60 /55 96 / 60 8.4  (NE) 6.9 26 mph 106° @ 0350 PM 2 or 0.08 0.00 24.8 192.3 0
Amherst 1NE 11:59 PM 72 58 60 /55 96 / 60 13.9  (NE) 11.3 26.3 mph 120° @ 0839 PM 3 or 0.12 0.00 26.6 196.3 0
Andrews 2E 11:59 PM 72 58 60 /55 96 / 60 11.8  (NE) 7.4 27.4 mph 38° @ 0527 AM 2.5 or 0.1 0.00 6.3 44 0
Anton 6SSW 11:55 PM 72 58 60 /55 96 / 60 12.7  (NE) 10.4 29.6 mph 76° @ 0210 PM 3 or 0.12 0.01 23.2 169.9 0
Aspermont 3NE 11:59 PM 72 58 60 /55 96 / 60 10.2  (NE) 7.5 24.1 mph 17° @ 0103 AM 2.3 or 0.09 0.38 5.8 41.9 0
Big Bend NP - Castolon 11:59 PM 72 58 60 /55 96 / 60 11.3  (W) 8.9 24.5 mph 319° @ 0511 PM 4.8 or 0.19 0.00 26.1 166.7 0
Big Bend NP - Persimmon Gap 11:59 PM 72 58 60 /55 96 / 60 20.7  (NE) 17.3 35.7 mph 40° @ 0257 AM 5.1 or 0.2 0.00 22.1 142.4 0
Big Lake 1WNW 11:59 PM 72 58 60 /55 96 / 60 10.3  (NE) 8.4 22.5 mph 36° @ 0620 AM 2.3 or 0.09 0.00 6.9 46.4 0
Bootleg 11WNW 11:59 PM 72 58 60 /55 96 / 60 11.6  (NE) 8.7 27.2 mph 91° @ 1137 AM 2.5 or 0.1 0.00 23.4 177.1 0
Borger 7E 11:59 PM 72 58 60 /55 96 / 60 8.8  (NE) 6.3 23 mph 112° @ 0530 PM 2 or 0.08 0.00 25.5 200.6 0
Boys Ranch 1WSW 11:59 PM 72 58 60 /55 96 / 60 7.7  (NE) 6.4 21.9 mph 102° @ 0326 PM 1.8 or 0.07 0.00 27.5 215.2 0
Brownfield 2S 11:59 PM 72 58 60 /55 96 / 60 14  (NE) 11.5 27.4 mph 130° @ 0617 PM 3.3 or 0.13 0.00 15.8 113.6 0
Canadian 6E 11:59 PM 72 58 60 /55 96 / 60 11.2  (N) 8.3 24.9 mph 72° @ 0630 PM 2.3 or 0.09 0.00 25.1 200.9 0
Caprock Canyons State Park 11:59 PM 72 58 60 /55 96 / 60 10.2  (E) 7.1 28.3 mph 96° @ 1141 AM 2.5 or 0.1 0.01 24.9 187.7 0
Childress 2NNE 11:55 PM 72 58 60 /55 96 / 60 12.6  (N) 8.9 27.5 mph 26° @ 1100 AM 3 or 0.12 0.08 18.3 139.1 0
Clarendon 2WSW 11:55 PM 72 58 60 /55 96 / 60 12.4  (NE) 9.3 27.4 mph 38° @ 0440 AM 2.8 or 0.11 0.00 24.2 186.2 0
Claude 12SW 11:59 PM 72 58 60 /55 96 / 60 12.1  (NE) 9.2 26.5 mph 47° @ 1105 AM 2.5 or 0.1 0.00 25.5 195.3 0
Clyde 2WNW 11:59 PM 72 58 60 /55 96 / 60 9.2  (N) 6.3 20.8 mph 33° @ 0418 AM 2.3 or 0.09 0.00 12.8 90.7 0
Colorado City 5NW 11:59 PM 72 58 60 /55 96 / 60 13  (NE) 9.1 27.7 mph 35° @ 0552 AM 2.8 or 0.11 0.00 6.5 46 0
Comanche Springs 11:59 PM 72 58 60 /55 96 / 60 9.3  (N) 7.3 26.3 mph 31° @ 1102 AM 2.5 or 0.1 0.29 8.1 60.4 0
Coyanosa 2N 11:59 PM 72 58 60 /55 96 / 60 9.4  (E) 6.5 26.6 mph 65° @ 1204 AM 2.8 or 0.11 0.00 12 81.9 0
Crane 1NNW 11:59 PM 72 58 60 /55 96 / 60 13.1  (E) 11.1 29 mph 55° @ 0524 AM 3 or 0.12 0.00 8.7 59.6 0
Crowell 1E 11:59 PM 72 58 60 /55 96 / 60 12.5  (N) 9.8 25.4 mph 24° @ 1053 AM 3 or 0.12 0.53 8.9 66.7 0
Dell City 11:59 PM 72 58 60 /55 96 / 60 10.5  (S) 7.8 30.2 mph 144° @ 0704 PM 3 or 0.12 0.00 26.8 184.2 0
Denver City 7WNW 11:55 PM 72 58 60 /55 96 / 60 12.5  (E) 9.5 25.7 mph 76° @ 1240 PM 3 or 0.12 0.00 18.6 132.4 0
Dimmitt 2NE 11:55 PM 72 58 60 /55 96 / 60 13.4  (NE) 10.9 28 mph 107° @ 0605 PM 2.8 or 0.11 0.00 25 188 0
Doole 3WNW 11:59 PM 72 58 60 /55 96 / 60 9.6  (N) 7.9 24 mph 7° @ 0618 AM 3 or 0.12 0.00 13.7 94.2 0
Dora NM 2SW 11:55 PM 72 58 60 /55 96 / 60 12.2  (E) 9.3 27.1 mph 113° @ 0655 PM 3 or 0.12 0.00 24.3 177.6 0
Dozier 3W 11:59 PM 72 58 60 /55 96 / 60 12  (N) 8.2 25.7 mph 76° @ 0702 PM 2.8 or 0.11 0.00 23.5 182.5 0
Earth 9WSW 11:59 PM 72 58 60 /55 96 / 60 12.3  (NE) 10.5 28.3 mph 65° @ 1158 AM 3 or 0.12 0.00 25.9 192.5 3
Endee NM 2SW 11:59 PM 72 58 60 /55 96 / 60 9.7  (N) 7.1 24.3 mph 113° @ 1233 PM 2.3 or 0.09 0.00 25.7 197 0
Estelline 3SSE 11:59 PM 72 58 60 /55 96 / 60 11.2  (NE) 8 26.3 mph 49° @ 1216 PM 2.8 or 0.11 0.34 20.8 158.5 0
Floydada 2NNE 11:55 PM 72 58 60 /55 96 / 60 14.8  (NE) 11.5 30.2 mph 51° @ 1150 AM 3.3 or 0.13 0.00 23.8 176.3 0
Fluvanna 3WNW 11:55 PM 72 58 60 /55 96 / 60 13.7  (NE) 11 29.4 mph 31° @ 0525 AM 2.3 or 0.09 0.04 4.1 29.5 0
Fort Chadbourne 11:59 PM 72 58 60 /55 96 / 60 9.2  (NE) 4.7 27.8 mph 30° @ 0357 AM 2.5 or 0.1 0.00 6.5 45.7 0
Fort Lancaster 11:59 PM 72 58 60 /55 96 / 60 7  (NE) 4.3 22.1 mph 32° @ 0609 AM 2 or 0.08 0.00 5.7 38.4 0
Fort Lewis CO 11:59 PM 72 58 60 /55 96 / 60 9.6  (NE) 5.3 29 mph 173° @ 0358 PM 1.8 or 0.07 0.00 13.7 110.6 0
Fort McKavett 11:59 PM 72 58 60 /55 96 / 60 8.4  (NE) 6 20.6 mph 29° @ 0349 AM 2.5 or 0.1 0.00 14.8 99.3 0
Friona 2NE 11:55 PM 72 58 60 /55 96 / 60 11.9  (NE) 9.2 24.6 mph 80° @ 1110 AM 2.5 or 0.1 0.00 27.6 208 0
Fritch 1WNW 11:59 PM 72 58 60 /55 96 / 60 8.8  (E) 7.2 22.2 mph 75° @ 0448 PM 2 or 0.08 0.00 25.9 203.3 0
Gail 2ESE 11:59 PM 72 58 60 /55 96 / 60 11.6  (NE) 8 27.4 mph 29° @ 0613 AM 2.3 or 0.09 0.14 4.6 32.6 0
Goodlett 3W 11:55 PM 72 58 60 /55 96 / 60 13.6  (N) 10.5 30 mph 38° @ 1120 AM 3 or 0.12 0.10 14 106.5 0
Goodnight 11:59 PM 72 58 60 /55 96 / 60 10.9  (N) 8.3 26.6 mph 72° @ 0307 PM 2.5 or 0.1 0.00 23 176.6 0
Graham 5SSW 11:59 PM 72 58 60 /55 96 / 60 14.3  (NE) 10.6 31.8 mph 42° @ 0628 AM 3 or 0.12 0.00 6.7 48.3 0
Guadalupe Mtns Natl Park 11:59 PM 72 58 60 /55 96 / 60 12.1  (NE) 9 29.6 mph 58° @ 1202 PM 2.8 or 0.11 0.00 28.6 193.4 0
Guthrie 10WSW 11:59 PM 72 58 60 /55 96 / 60 12  (N) 8.5 27.4 mph 4° @ 1122 AM 2.8 or 0.11 0.32 5.8 42.4 0
Hackberry 2SSE 11:59 PM 72 58 60 /55 96 / 60 11.6  (N) 9 24.9 mph 22° @ 1140 AM 2.8 or 0.11 0.18 7.7 57.1 0
Happy 1E 11:59 PM 72 58 60 /55 96 / 60 12.5  (NE) 10.1 30.2 mph 70° @ 1042 AM 2.5 or 0.1 0.00 26.3 199.1 0
Hart 3N 11:55 PM 72 58 60 /55 96 / 60 14.1  (NE) 11 27 mph 64° @ 1105 AM 3 or 0.12 0.00 24.8 185.5 0
Haskell 1NW 11:55 PM 72 58 60 /55 96 / 60 13.8  (NE) 10.7 25.2 mph 13° @ 0250 AM 3 or 0.12 0.00 6.4 47 0
Hefner 1SW 11:59 PM 72 58 60 /55 96 / 60 11.8  (N) 8.3 22.7 mph 17° @ 1204 AM 2.8 or 0.11 0.06 7 51.7 0
Hereford 2NW 11:55 PM 72 58 60 /55 96 / 60 10.1  (NE) 8.3 27 mph 71° @ 0420 PM 2.3 or 0.09 0.00 26.4 200.4 0
Hobbs NM 5NW 11:59 PM 72 58 60 /55 96 / 60 10.1  (E) 6.1 25.4 mph 112° @ 1252 PM 2.8 or 0.11 0.00 18.9 133.7 0
Jayton 1SSE 11:55 PM 72 58 60 /55 96 / 60 10.7  (NE) 8.1 25.3 mph 22° @ 0510 AM 2.3 or 0.09 0.14 5.8 42.5 0
Junction 1SSW 11:59 PM 72 58 60 /55 96 / 60 7.6  (N) 6.1 18.1 mph 20° @ 0655 AM 2.8 or 0.11 0.00 17 113.3 0
Kent 9E 11:59 PM 72 58 60 /55 96 / 60 10  (E) 7.4 21.7 mph 93° @ 0131 AM 2.8 or 0.11 0.00 20.4 136 0
Knox City 3NW 11:59 PM 72 58 60 /55 96 / 60 10.9  (NE) 8.2 25.2 mph 31° @ 0103 PM 2.8 or 0.11 0.12 7.4 54.7 0
Lake Alan Henry 1NW 11:59 PM 72 58 60 /55 96 / 60 11.1  (NE) 7.6 23.2 mph 46° @ 0510 AM 2.3 or 0.09 0.43 4.8 34.9 0
Lake McClellan 2NW 11:59 PM 72 58 60 /55 96 / 60 13.7  (N) 10.6 27.4 mph 49° @ 1051 AM 2.8 or 0.11 0.00 24.2 187.7 0
Lamesa 1S 11:55 PM 72 58 60 /55 96 / 60 10.9  (NE) 7.8 25.4 mph 52° @ 0720 AM 2.3 or 0.09 0.00 1.1 37.7 0
Lesley 2S 11:59 PM 72 58 60 /55 96 / 60 13.1  (NE) 9.3 27.4 mph 54° @ 1102 AM 3 or 0.12 0.12 24.1 184.1 0
Levelland 4S 11:59 PM 72 58 60 /55 96 / 60 13.9  (NE) 11.7 29.6 mph 72° @ 1108 AM 3.3 or 0.13 0.00 21.4 155.6 1
Lomax 1SSE 11:59 PM 72 58 60 /55 96 / 60 12.4  (NE) 9.8 27.3 mph 34° @ 0611 AM 2.8 or 0.11 0.00 6.7 47 0
Lubbock 3WNW TTU 11:55 PM 72 58 60 /55 96 / 60 11.7  (NE) 8.8 25.1 mph 61° @ 0200 PM 3 or 0.12 0.00 22.4 163.4 0
McAdoo 3NNW 11:59 PM 72 58 60 /55 96 / 60 15.5  (NE) 10.7 32.9 mph 29° @ 0440 AM 3.3 or 0.13 0.04 19.8 145.9 0
McCamey 1SSW 11:59 PM 72 58 60 /55 96 / 60 10.7  (NE) 9.3 28.9 mph 55° @ 0223 AM 2.5 or 0.1 0.00 8.4 57.2 0
McLean 1E 11:55 PM 72 58 60 /55 96 / 60 12  (N) 9.2 25.9 mph 54° @ 1110 AM 2.3 or 0.09 0.00 25.5 198 0
Memphis 1NE 11:59 PM 72 58 60 /55 96 / 60 11.6  (N) 8.4 27.4 mph 35° @ 1132 AM 2.8 or 0.11 0.00 23.9 183.1 0
Menard 2NW 11:59 PM 72 58 60 /55 96 / 60 9.2  (NE) 7.4 20.7 mph 25° @ 0542 AM 2.8 or 0.11 0.00 13.7 92.7 0
Mertzon 3NNE 11:59 PM 72 58 60 /55 96 / 60 9.7  (NE) 7.1 22.9 mph 43° @ 0751 AM 2.3 or 0.09 0.00 6.6 45.3 0
Morton 1ENE 11:55 PM 72 58 60 /55 96 / 60 12.9  (NE) 9.4 29.4 mph 119° @ 0735 PM 3 or 0.12 0.00 24.3 177.4 0
Muleshoe 2SSW 11:55 PM 72 58 60 /55 96 / 60 11.9  (NE) 9.5 26.1 mph 92° @ 1140 AM 2.8 or 0.11 0.00 27.6 205.3 0
New Home 11:59 PM 72 58 60 /55 96 / 60 12.1  (E) 9 23.9 mph 46° @ 1012 AM 3 or 0.12 0.00 18.5 133.9 0
Northfield 1S 11:55 PM 72 58 60 /55 96 / 60 10.2  (NE) 7 26.1 mph 43° @ 1140 AM 2.8 or 0.11 0.06 18.3 138.3 0
O'Donnell 1N 11:55 PM 72 58 60 /55 96 / 60 15  (NE) 11.5 29.7 mph 35° @ 0545 AM 3 or 0.12 0.01 1.4 50.6 0
Odell 4ENE 11:59 PM 72 58 60 /55 96 / 60 12.8  (N) 9.1 28.8 mph 22° @ 1104 AM 3 or 0.12 0.24 12 91.1 0
Olton 6S 11:55 PM 72 58 60 /55 96 / 60 13.3  (NE) 10.6 28.3 mph 58° @ 1105 AM 3 or 0.12 0.00 25.6 189.6 0
Paducah 10SW 11:59 PM 72 58 60 /55 96 / 60 11.9  (N) 8 29.6 mph 24° @ 1137 AM 2.8 or 0.11 0.15 9.6 71.4 0
Palo Duro 4E (JA Ranch) 11:59 PM 72 58 60 /55 96 / 60 11.1  (N) 7.9 23 mph 74° @ 1112 AM 2.8 or 0.11 0.00 23.2 177.7 0
Palo Duro Canyon SP Floor 11:59 PM 72 58 60 /55 96 / 60 7.2  (S) 3.7 24.3 mph 134° @ 0148 PM 2 or 0.08 0.00 23.3 179.3 0
Palo Duro Canyon State Park Rim 11:59 PM 72 58 60 /55 96 / 60 8.9  (NE) 5.5 26.1 mph 60° @ 1115 AM 2.3 or 0.09 0.00 24.8 189.8 0
Palo Duro Reservoir 1NW 11:59 PM 72 58 60 /55 96 / 60 9.7  (NE) 7.3 23.9 mph 115° @ 0601 PM 2 or 0.08 0.00 24.5 198.1 0
Pampa 2E 11:55 PM 72 58 60 /55 96 / 60 9.8  (NE) 7.4 23.1 mph 17° @ 1230 PM 2 or 0.08 0.00 23.8 186.3 0
Panhandle 1SSW 11:59 PM 72 58 60 /55 96 / 60 11.1  (NE) 8.9 25.1 mph 66° @ 1133 AM 2.3 or 0.09 0.00 24.5 190.3 0
Plains 3N 11:55 PM 72 58 60 /55 96 / 60 12.8  (NE) 10.7 28.3 mph 131° @ 0635 PM 3 or 0.12 0.00 20.4 146.3 0
Plainview 1S 11:59 PM 72 58 60 /55 96 / 60 11.7  (NE) 9.4 29.6 mph 74° @ 1148 AM 2.8 or 0.11 0.00 24.6 183.5 0
Post 1NE 11:59 PM 72 58 60 /55 96 / 60 11.7  (NE) 7.7 26.3 mph 27° @ 0524 AM 2.8 or 0.11 0.00 7.4 53.4 0
Ralls 1SE 11:59 PM 72 58 60 /55 96 / 60 14.7  (NE) 11.9 30.7 mph 48° @ 1121 AM 3.6 or 0.14 0.00 20.3 148.9 0
Reese Center 11:59 PM 72 58 60 /55 96 / 60 14  (E) 10.4 32.9 mph 58° @ 1212 PM 3 or 0.12 0.00 22.6 165.1 0
Roaring Springs 3N 11:59 PM 72 58 60 /55 96 / 60 12.8  (NE) 9.6 30.7 mph 44° @ 0214 PM 3 or 0.12 0.08 18.9 140.1 0
Romero 11SSW 11:59 PM 72 58 60 /55 96 / 60 9.2  (NE) 6.5 22 mph 83° @ 1014 AM 2 or 0.08 0.00 25.5 199.1 0
Rotan 5W 11:59 PM 72 58 60 /55 96 / 60 13.5  (NE) 10.9 26 mph 20° @ 0333 AM 2.3 or 0.09 0.10 6.1 43.5 0
San Angelo 7NW 11:55 PM 72 58 60 /55 96 / 60 7.3  (NE) 5.3 25.1 mph 35° @ 0730 AM 2 or 0.08 0.00 6.5 44.6 0
Seagraves 1SW 11:59 PM 72 58 60 /55 96 / 60 9.6  (NE) 7 26.3 mph 43° @ 0627 AM 2.8 or 0.11 0.00 16.1 115 0
Segovia 7SSW 11:59 PM 72 58 60 /55 96 / 60 7.7  (N) 5.7 22.1 mph 46° @ 0414 PM 2.8 or 0.11 0.00 21.2 140.4 0
Seminole 2NNE 11:55 PM 72 58 60 /55 96 / 60 12.4  (E) 7 25.2 mph 38° @ 0620 AM 2.8 or 0.11 1.16 2.7 94.4 0
Seymour 3NW 11:55 PM 72 58 60 /55 96 / 60 12.5  (N) 9.3 24 mph 346° @ 0520 PM 3 or 0.12 0.00 5.8 43 0
Sierra Blanca 1SSE 11:59 PM 72 58 60 /55 96 / 60 12.9  (SE) 9.9 26.5 mph 118° @ 1222 PM 3.6 or 0.14 0.00 25.5 170.3 0
Silverton 7ESE 11:55 PM 72 58 60 /55 96 / 60 14  (NE) 10.5 29.9 mph 76° @ 1130 AM 2.8 or 0.11 0.07 22.2 166.9 0
Slaton 2NE 11:59 PM 72 58 60 /55 96 / 60 13  (NE) 10.5 30.7 mph 107° @ 0502 PM 3.3 or 0.13 0.00 20.9 151.9 0
Smyer 11:59 PM 72 58 60 /55 96 / 60 12.2  (NE) 9 30 mph 38° @ 1058 AM 3 or 0.12 0.00 23.2 169.4 0
Snyder 3E 11:55 PM 72 58 60 /55 96 / 60 13.6  (NE) 7.4 29 mph 22° @ 0440 AM 2.8 or 0.11 0.00 4.7 33.5 0
Snyder 3SSW 11:59 PM 72 58 60 /55 96 / 60 13.8  (NE) 9.5 28.6 mph 25° @ 0535 AM 2.8 or 0.11 0.00 5.1 36.2 0
South Plains 3ENE 11:59 PM 72 58 60 /55 96 / 60 13.4  (NE) 10.5 29.2 mph 53° @ 1145 AM 3 or 0.12 0.49 22.7 169.4 0
Spur 1W 11:55 PM 72 58 60 /55 96 / 60 11.7  (NE) 10 25.4 mph 38° @ 0510 AM 2.8 or 0.11 0.19 6.7 48.9 0
St. Lawrence 5SW 11:59 PM 72 58 60 /55 96 / 60 14.2  (NE) 11.2 30.7 mph 43° @ 0732 AM 2.5 or 0.1 0.00 7.3 50.3 0
Stamford 5ESE 11:59 PM 72 58 60 /55 96 / 60 12.5  (N) 9 24.8 mph 22° @ 0144 AM 3 or 0.12 0.00 8.8 63.7 0
Sterling City 4WSW 11:59 PM 72 58 60 /55 96 / 60 8.6  (N) 6.4 22.9 mph 25° @ 0645 AM 2 or 0.08 0.05 4.7 32.7 0
Stinnett 1NNW 11:59 PM 72 58 60 /55 96 / 60 9.4  (NE) 7.2 24.5 mph 71° @ 0146 PM 2 or 0.08 0.00 23.1 182.7 0
Stratford 4WNW 11:59 PM 72 58 60 /55 96 / 60 8.9  (NE) 6.3 21 mph 106° @ 0547 PM 1.8 or 0.07 0.00 26 209.2 0
Sundown 8WSW 11:55 PM 72 58 60 /55 96 / 60 12.3  (NE) 8.7 26.4 mph 57° @ 1040 AM 3 or 0.12 0.01 17.5 126.8 0
Sweetwater 11SW 11:59 PM 72 58 60 /55 96 / 60 14.9  (NE) 10.5 32.9 mph 37° @ 0306 AM 2.5 or 0.1 0.01 5.9 41.8 0
Tahoka 3NNE 11:59 PM 72 58 60 /55 96 / 60 13.3  (NE) 9.4 25.7 mph 38° @ 0535 AM 3.3 or 0.13 0.01 14.4 104 0
Tarzan 2WNW 11:59 PM 72 58 60 /55 96 / 60 14.1  (NE) 10.5 28.1 mph 40° @ 0741 AM 2.5 or 0.1 0.00 4.2 29.7 0
Tatum NM 2SW 11:55 PM 72 58 60 /55 96 / 60 12.9  (NE) 8.6 31 mph 107° @ 0700 PM 3.3 or 0.13 0.00 23.5 168.6 0
Throckmorton 1SW 11:59 PM 72 58 60 /55 96 / 60 8.1  (N) 5 19.8 mph 28° @ 0231 PM 2.3 or 0.09 0.09 11.7 85.6 0
Truscott 2SE 11:59 PM 72 58 60 /55 96 / 60 11.9  (N) 9.1 24.8 mph 19° @ 1036 AM 3 or 0.12 1.10 7.3 54 0
Tulia 2ENE 11:55 PM 72 58 60 /55 96 / 60 12.9  (NE) 10.2 28.9 mph 80° @ 0120 PM 2.8 or 0.11 0.00 21.5 161.8 0
Turkey 2WSW 11:55 PM 72 58 60 /55 96 / 60 13.1  (N) 10.2 27.6 mph 24° @ 1210 PM 3 or 0.12 0.35 20.7 156.1 0
Umbarger 3NNE 11:59 PM 72 58 60 /55 96 / 60 11  (NE) 8.5 28 mph 56° @ 0313 AM 2.5 or 0.1 0.00 25.3 193.7 0
Van Horn 3ENE 11:59 PM 72 58 60 /55 96 / 60 13.2  (NE) 9.6 28.6 mph 37° @ 1215 PM 3.6 or 0.14 0.00 28.4 189.6 0
Vega 4E 11:59 PM 72 58 60 /55 96 / 60 10.3  (NE) 7.6 24.1 mph 91° @ 0309 PM 2.3 or 0.09 0.00 28.7 221.1 0
Vigo Park 11:59 PM 72 58 60 /55 96 / 60 12.9  (NE) 9.1 28.9 mph 56° @ 1105 AM 3 or 0.12 0.00 22.1 167.1 0
Wall 2E 11:59 PM 72 58 60 /55 96 / 60 12.4  (NE) 10.2 24.4 mph 33° @ 0529 AM 2.8 or 0.11 0.00 8.5 58.6 0
Weinert 2NNE 11:59 PM 72 58 60 /55 96 / 60 11.9  (NE) 9.2 23.3 mph 45° @ 0235 PM 2.8 or 0.11 0.07 5.5 40.5 0
Welch 11:59 PM 72 58 60 /55 96 / 60 12.2  (E) 8.7 24.9 mph 53° @ 0920 AM 3 or 0.12 0.00 10.3 73.7 0
Wellington 6SE 11:59 PM 72 58 60 /55 96 / 60 14.7  (NE) 11.6 30.7 mph 40° @ 0155 PM 3 or 0.12 0.00 22.9 176 0
White River Lake 6NW 11:59 PM 72 58 60 /55 96 / 60 13.2  (NE) 9.2 30.7 mph 16° @ 0458 AM 3.3 or 0.13 0.12 16.3 119.2 0
Wolfforth 6SSW 11:59 PM 72 58 60 /55 96 / 60 15.1  (E) 12.4 27.4 mph 113° @ 0548 PM 3.6 or 0.14 0.00 21.7 157.6 0

WestTexas Mesonet Home    Site Map/Menu  National Weather Service Lubbock   Soil Data   Latest Observation Page   Previous  Date   Next Last